createdAt,value
2022-08-20T00:02:12.040Z,28.23
2022-08-20T00:04:39.851Z,28.63
2022-08-20T00:07:08.212Z,31.10
2022-08-20T00:09:36.448Z,33.77
2022-08-20T00:12:05.218Z,31.43
2022-08-20T00:14:34.304Z,31.03
2022-08-20T00:17:02.139Z,33.50
2022-08-20T00:19:31.025Z,34.30
2022-08-20T00:21:59.205Z,36.30
2022-08-20T00:24:26.854Z,39.97
2022-08-20T00:26:54.654Z,37.13
2022-08-20T00:29:22.606Z,37.23
2022-08-20T00:31:50.666Z,44.87
2022-08-20T00:34:18.202Z,44.27
2022-08-20T00:36:47.848Z,42.90
2022-08-20T00:39:15.935Z,48.20
2022-08-20T00:41:43.671Z,49.50
2022-08-20T00:44:12.519Z,49.97
2022-08-20T00:46:40.673Z,52.10
2022-08-20T00:49:09.526Z,57.67
2022-08-20T00:51:39.325Z,49.67
2022-08-20T00:54:10.809Z,59.77
2022-08-20T00:56:40.809Z,56.43
2022-08-20T00:59:11.352Z,50.40
2022-08-20T01:01:54.940Z,58.17
2022-08-20T01:04:25.202Z,60.00
2022-08-20T01:06:52.825Z,52.80
2022-08-20T01:09:50.260Z,54.03
2022-08-20T01:12:10.721Z,53.23
2022-08-20T01:14:43.812Z,52.67
2022-08-20T01:17:15.668Z,51.17
2022-08-20T01:19:45.356Z,52.70
2022-08-20T01:22:32.822Z,52.30
2022-08-20T01:25:08.349Z,54.53
2022-08-20T01:27:42.568Z,56.13
2022-08-20T01:30:10.826Z,51.53
2022-08-20T01:32:38.355Z,44.87
2022-08-20T01:35:07.142Z,44.37
2022-08-20T01:37:34.859Z,47.10
2022-08-20T01:40:03.341Z,40.60
2022-08-20T01:42:35.765Z,43.67
2022-08-20T01:45:05.591Z,41.10
2022-08-20T01:47:38.593Z,45.10
2022-08-20T01:50:09.061Z,43.10
2022-08-20T01:52:41.179Z,40.20
2022-08-20T01:55:10.116Z,38.87
2022-08-20T01:57:38.337Z,39.80
2022-08-20T02:00:14.591Z,38.43
2022-08-20T02:02:48.916Z,36.43
2022-08-20T02:05:16.411Z,31.70
2022-08-20T02:07:44.264Z,31.27
2022-08-20T02:10:13.118Z,29.83
2022-08-20T02:12:40.678Z,27.40
2022-08-20T02:15:11.168Z,26.17
2022-08-20T02:17:39.599Z,24.73
2022-08-20T02:20:08.814Z,22.60
2022-08-20T02:22:40.087Z,22.47
2022-08-20T02:25:12.733Z,25.10
2022-08-20T02:27:41.559Z,21.80
2022-08-20T02:30:27.454Z,22.70
2022-08-20T02:32:57.110Z,23.27
2022-08-20T02:35:25.639Z,22.97
2022-08-20T02:37:54.682Z,27.47
2022-08-20T02:40:27.464Z,27.50
2022-08-20T02:42:58.693Z,28.17
2022-08-20T02:45:28.488Z,27.23
2022-08-20T02:47:57.366Z,25.90
2022-08-20T02:50:26.213Z,28.70
2022-08-20T02:52:54.187Z,31.67
2022-08-20T02:55:27.214Z,31.77
2022-08-20T02:57:58.497Z,32.37
2022-08-20T03:00:34.994Z,32.13
2022-08-20T03:03:06.766Z,35.30
2022-08-20T03:05:34.596Z,38.57
2022-08-20T03:08:02.476Z,46.27
2022-08-20T03:10:32.062Z,47.30
2022-08-20T03:13:01.089Z,55.30
2022-08-20T03:15:31.090Z,50.60
2022-08-20T03:17:58.660Z,52.90
2022-08-20T03:20:27.121Z,55.90
2022-08-20T03:22:55.015Z,59.30
2022-08-20T03:25:23.063Z,50.80
2022-08-20T03:27:55.165Z,60.03
2022-08-20T03:30:24.679Z,55.17
2022-08-20T03:32:53.814Z,55.37
2022-08-20T03:35:23.251Z,65.27
2022-08-20T03:37:51.132Z,61.90
2022-08-20T03:40:21.955Z,60.83
2022-08-20T03:42:49.743Z,63.40
2022-08-20T03:45:20.564Z,67.40
2022-08-20T03:47:49.237Z,67.77
2022-08-20T03:50:23.106Z,63.53
2022-08-20T03:52:52.310Z,70.23
2022-08-20T03:55:20.922Z,62.50
2022-08-20T03:57:50.418Z,65.40
2022-08-20T04:00:27.501Z,69.30
2022-08-20T04:02:57.222Z,64.33
2022-08-20T04:05:28.353Z,61.30
2022-08-20T04:07:56.773Z,71.07
2022-08-20T04:10:30.922Z,59.50
2022-08-20T04:12:58.549Z,63.40
2022-08-20T04:15:27.134Z,57.07
2022-08-20T04:17:54.850Z,57.17
2022-08-20T04:20:26.226Z,53.47
2022-08-20T04:22:58.655Z,59.90
2022-08-20T04:25:28.702Z,61.37
2022-08-20T04:27:58.533Z,52.43
2022-08-20T04:30:26.577Z,48.50
2022-08-20T04:32:54.431Z,53.03
2022-08-20T04:35:24.579Z,45.23
2022-08-20T04:38:00.383Z,45.80
2022-08-20T04:40:46.028Z,43.10
2022-08-20T04:43:13.923Z,43.93
2022-08-20T04:45:41.463Z,47.17
2022-08-20T04:48:14.280Z,42.00
2022-08-20T04:50:44.782Z,46.13
2022-08-20T04:53:14.679Z,46.20
2022-08-20T04:55:43.914Z,43.80
2022-08-20T04:58:12.694Z,42.67
2022-08-20T05:00:40.642Z,35.77
2022-08-20T05:03:08.958Z,41.63
2022-08-20T05:05:36.517Z,43.57
2022-08-20T05:08:05.164Z,46.33
2022-08-20T05:10:42.054Z,45.60
2022-08-20T05:13:10.280Z,43.77
2022-08-20T05:15:38.766Z,48.90
2022-08-20T05:18:07.959Z,40.80
2022-08-20T05:20:39.838Z,40.20
2022-08-20T05:23:09.932Z,37.13
2022-08-20T05:25:38.318Z,39.20
2022-08-20T05:28:10.164Z,36.83
2022-08-20T05:30:38.611Z,40.00
2022-08-20T05:33:08.042Z,44.50
2022-08-20T05:35:38.673Z,41.43
2022-08-20T05:38:06.470Z,44.70
2022-08-20T05:40:34.598Z,42.27
2022-08-20T05:43:04.883Z,41.70
2022-08-20T05:45:34.199Z,47.30
2022-08-20T05:48:05.202Z,40.47
2022-08-20T05:50:33.175Z,41.77
2022-08-20T05:53:01.410Z,42.90
2022-08-20T05:55:29.816Z,39.73
2022-08-20T05:57:57.989Z,41.90
2022-08-20T06:00:26.595Z,44.03
2022-08-20T06:03:09.650Z,47.27
2022-08-20T06:05:37.279Z,41.30
2022-08-20T06:08:07.921Z,43.73
2022-08-20T06:10:37.945Z,43.50
2022-08-20T06:13:08.262Z,43.23
2022-08-20T06:15:41.549Z,52.00
2022-08-20T06:18:27.343Z,45.00
2022-08-20T06:20:56.735Z,40.30
2022-08-20T06:23:25.278Z,47.17
2022-08-20T06:25:53.367Z,45.67
2022-08-20T06:28:21.054Z,42.63
2022-08-20T06:30:48.618Z,45.60
2022-08-20T06:33:17.537Z,47.17
2022-08-20T06:35:45.594Z,42.33
2022-08-20T06:38:14.621Z,48.00
2022-08-20T06:40:42.263Z,48.20
2022-08-20T06:43:10.073Z,47.97
2022-08-20T06:45:38.851Z,45.03
2022-08-20T06:48:07.343Z,44.30
2022-08-20T06:50:47.026Z,46.73
2022-08-20T06:53:17.177Z,44.57
2022-08-20T06:55:48.096Z,46.87
2022-08-20T06:58:35.630Z,45.97
2022-08-20T07:01:09.994Z,49.93
2022-08-20T07:03:39.042Z,51.73
2022-08-20T07:06:08.393Z,44.37
2022-08-20T07:08:36.402Z,46.37
2022-08-20T07:11:04.187Z,44.20
2022-08-20T07:13:31.999Z,42.13
2022-08-20T07:15:59.556Z,44.60
2022-08-20T07:18:28.381Z,41.20
2022-08-20T07:20:57.568Z,48.53
2022-08-20T07:23:27.036Z,50.43
2022-08-20T07:25:55.573Z,51.33
2022-08-20T07:28:24.638Z,45.83
2022-08-20T07:31:13.495Z,41.40
2022-08-20T07:33:42.662Z,62.80
2022-08-20T07:36:12.957Z,54.13
2022-08-20T07:38:46.155Z,57.60
2022-08-20T07:41:14.795Z,52.37
2022-08-20T07:43:43.239Z,46.40
2022-08-20T07:46:11.192Z,54.70
2022-08-20T07:48:40.303Z,52.50
2022-08-20T07:51:09.065Z,49.80
2022-08-20T07:53:37.949Z,49.10
2022-08-20T07:56:08.623Z,51.03
2022-08-20T07:58:38.458Z,54.47
2022-08-20T08:01:06.736Z,49.27
2022-08-20T08:03:39.553Z,58.30
2022-08-20T08:06:28.546Z,53.57
2022-08-20T08:08:58.833Z,57.53
2022-08-20T08:11:29.010Z,62.87
2022-08-20T08:13:56.721Z,54.80
2022-08-20T08:16:24.994Z,61.70
2022-08-20T08:18:56.634Z,67.57
2022-08-20T08:21:24.936Z,62.67
2022-08-20T08:23:53.411Z,63.10
2022-08-20T08:26:21.852Z,54.63
2022-08-20T08:28:51.329Z,74.77
2022-08-20T08:31:18.970Z,70.97
2022-08-20T08:33:46.631Z,59.80
2022-08-20T08:36:15.939Z,66.70
2022-08-20T08:38:45.559Z,75.70
2022-08-20T08:41:16.961Z,59.00
2022-08-20T08:43:46.751Z,61.97
2022-08-20T08:46:18.174Z,64.40
2022-08-20T08:48:47.712Z,67.30
2022-08-20T08:51:17.171Z,62.27
2022-08-20T08:53:46.901Z,55.83
2022-08-20T08:56:15.810Z,66.00
2022-08-20T08:58:43.913Z,62.93
2022-08-20T09:01:13.829Z,52.90
2022-08-20T09:04:05.310Z,53.80
2022-08-20T09:06:33.463Z,51.53
2022-08-20T09:09:03.382Z,58.63
2022-08-20T09:11:31.097Z,64.87
2022-08-20T09:13:59.012Z,66.57
2022-08-20T09:16:28.041Z,57.23
2022-08-20T09:19:05.414Z,63.77
2022-08-20T09:21:33.023Z,54.40
2022-08-20T09:24:00.634Z,59.40
2022-08-20T09:26:29.266Z,48.83
2022-08-20T09:28:57.030Z,54.43
2022-08-20T09:31:25.166Z,50.53
2022-08-20T09:33:52.950Z,59.43
2022-08-20T09:36:31.464Z,51.63
2022-08-20T09:39:02.820Z,59.30
2022-08-20T09:41:31.149Z,47.23
2022-08-20T09:44:02.027Z,50.90
2022-08-20T09:46:29.607Z,49.33
2022-08-20T09:48:57.474Z,47.97
2022-08-20T09:51:26.873Z,51.23
2022-08-20T09:53:55.655Z,54.00
2022-08-20T09:56:25.799Z,52.63
2022-08-20T09:58:54.851Z,54.83
2022-08-20T10:01:23.341Z,7.13
2022-08-20T10:03:51.620Z,8.17
2022-08-20T10:06:20.738Z,49.43
2022-08-20T10:08:50.459Z,67.30
2022-08-20T10:11:18.430Z,65.83
2022-08-20T10:13:46.079Z,77.00
2022-08-20T10:16:13.781Z,70.00
2022-08-20T10:18:41.824Z,61.83
2022-08-20T10:21:10.471Z,59.47
2022-08-20T10:23:38.158Z,63.07
2022-08-20T10:26:07.998Z,64.10
2022-08-20T10:28:35.963Z,51.20
2022-08-20T10:31:04.632Z,47.70
2022-08-20T10:33:32.483Z,48.77
2022-08-20T10:36:06.585Z,43.73
2022-08-20T10:38:34.411Z,50.07
2022-08-20T10:41:02.140Z,43.33
2022-08-20T10:43:31.263Z,38.07
2022-08-20T10:45:59.311Z,37.10
2022-08-20T10:48:27.235Z,33.53
2022-08-20T10:50:54.866Z,31.00
2022-08-20T10:53:23.004Z,34.03
2022-08-20T10:55:50.564Z,33.33
2022-08-20T10:58:18.300Z,25.60
2022-08-20T11:00:49.438Z,29.60
2022-08-20T11:03:17.047Z,29.40
2022-08-20T11:05:44.729Z,30.77
2022-08-20T11:08:12.453Z,33.77
2022-08-20T11:10:40.890Z,29.17
2022-08-20T11:13:12.328Z,28.20
2022-08-20T11:15:40.747Z,25.37
2022-08-20T11:18:09.760Z,27.90
2022-08-20T11:20:37.682Z,25.20
2022-08-20T11:23:05.269Z,23.90
2022-08-20T11:25:33.239Z,24.17
2022-08-20T11:28:01.314Z,20.60
2022-08-20T11:30:30.092Z,22.23
2022-08-20T11:32:58.215Z,19.73
2022-08-20T11:35:48.909Z,19.80
2022-08-20T11:38:16.275Z,21.00
2022-08-20T11:40:44.138Z,21.73
2022-08-20T11:43:15.122Z,20.03
2022-08-20T11:45:44.758Z,17.93
2022-08-20T11:48:12.413Z,18.00
2022-08-20T11:50:41.556Z,17.90
2022-08-20T11:53:09.385Z,18.07
2022-08-20T11:55:37.720Z,19.30
2022-08-20T11:58:06.328Z,15.97
2022-08-20T12:00:35.020Z,16.50
2022-08-20T12:03:05.031Z,19.00
2022-08-20T12:05:33.097Z,14.33
2022-08-20T12:08:03.105Z,14.87
2022-08-20T12:10:30.988Z,17.73
2022-08-20T12:12:59.010Z,16.20
2022-08-20T12:15:27.764Z,15.10
2022-08-20T12:17:55.822Z,15.70
2022-08-20T12:20:24.380Z,18.17
2022-08-20T12:22:52.897Z,14.47
2022-08-20T12:25:22.323Z,13.10
2022-08-20T12:27:49.902Z,13.07
2022-08-20T12:30:19.824Z,12.20
2022-08-20T12:32:47.883Z,16.97
2022-08-20T12:35:17.491Z,18.07
2022-08-20T12:37:46.150Z,12.67
2022-08-20T12:40:17.111Z,13.77
2022-08-20T12:42:54.659Z,14.30
2022-08-20T12:45:25.212Z,12.63
2022-08-20T12:47:52.715Z,16.27
2022-08-20T12:50:29.656Z,16.43
2022-08-20T12:52:59.347Z,13.10
2022-08-20T12:55:27.102Z,15.67
2022-08-20T12:57:57.155Z,11.63
2022-08-20T13:00:26.982Z,12.40
2022-08-20T13:02:55.397Z,13.10
2022-08-20T13:05:23.309Z,11.00
2022-08-20T13:07:51.405Z,15.00
2022-08-20T13:10:20.835Z,12.07
2022-08-20T13:12:48.471Z,10.40
2022-08-20T13:15:17.748Z,11.10
2022-08-20T13:17:46.216Z,12.53
2022-08-20T13:20:15.409Z,13.70
2022-08-20T13:22:43.318Z,13.00
2022-08-20T13:25:11.615Z,16.43
2022-08-20T13:27:40.811Z,12.43
2022-08-20T13:30:10.689Z,22.50
2022-08-20T13:32:40.366Z,13.97
2022-08-20T13:35:08.709Z,14.00
2022-08-20T13:37:36.647Z,15.70
2022-08-20T13:40:05.357Z,18.60
2022-08-20T13:42:33.086Z,19.40
2022-08-20T13:45:00.782Z,16.73
2022-08-20T13:47:29.744Z,22.50
2022-08-20T13:49:59.341Z,19.50
2022-08-20T13:52:28.720Z,25.13
2022-08-20T13:54:56.401Z,20.83
2022-08-20T13:57:24.792Z,21.90
2022-08-20T13:59:53.648Z,24.30
2022-08-20T14:02:21.672Z,24.03
2022-08-20T14:04:49.788Z,26.37
2022-08-20T14:07:19.735Z,44.53
2022-08-20T14:09:48.015Z,29.93
2022-08-20T14:12:16.773Z,30.63
2022-08-20T14:14:44.842Z,28.90
2022-08-20T14:17:14.402Z,33.13
2022-08-20T14:19:42.907Z,42.10
2022-08-20T14:22:10.725Z,39.43
2022-08-20T14:24:39.758Z,51.67
2022-08-20T14:27:08.342Z,40.60
2022-08-20T14:29:36.753Z,41.37
2022-08-20T14:32:04.909Z,38.20
2022-08-20T14:34:33.091Z,41.10
2022-08-20T14:37:10.234Z,34.83
2022-08-20T14:39:37.952Z,39.90
2022-08-20T14:42:07.035Z,41.33
2022-08-20T14:44:35.085Z,34.83
2022-08-20T14:47:12.975Z,33.57
2022-08-20T14:49:41.547Z,33.93
2022-08-20T14:52:09.113Z,36.93
2022-08-20T14:54:37.239Z,36.37
2022-08-20T14:57:05.610Z,34.07
2022-08-20T14:59:42.134Z,33.13
2022-08-20T15:02:11.309Z,33.37
2022-08-20T15:04:39.285Z,33.20
2022-08-20T15:07:14.871Z,33.10
2022-08-20T15:09:44.447Z,31.67
2022-08-20T15:12:12.095Z,37.23
2022-08-20T15:14:40.192Z,29.50
2022-08-20T15:17:10.636Z,37.80
2022-08-20T15:19:38.630Z,33.47
2022-08-20T15:22:06.602Z,35.07
2022-08-20T15:24:34.387Z,134.77
2022-08-20T15:27:10.885Z,47.30
2022-08-20T15:29:40.181Z,154.10
2022-08-20T15:32:08.577Z,101.93
2022-08-20T15:34:38.057Z,55.10
2022-08-20T15:37:09.643Z,174.53
2022-08-20T15:39:37.850Z,92.80
2022-08-20T15:42:06.088Z,61.13
2022-08-20T15:44:34.168Z,124.33
2022-08-20T15:47:13.349Z,76.80
2022-08-20T15:49:42.710Z,57.83
2022-08-20T15:52:11.001Z,34.20
2022-08-20T15:54:39.383Z,32.07
2022-08-20T15:57:08.663Z,35.73
2022-08-20T15:59:43.795Z,32.87
2022-08-20T16:02:17.094Z,31.07
2022-08-20T16:05:01.505Z,32.20
2022-08-20T16:07:34.738Z,37.30
2022-08-20T16:10:04.703Z,32.13
2022-08-20T16:12:33.954Z,28.87
2022-08-20T16:15:03.108Z,30.23
2022-08-20T16:17:32.709Z,28.20
2022-08-20T16:20:05.158Z,28.07
2022-08-20T16:22:33.422Z,28.37
2022-08-20T16:25:01.195Z,28.90
2022-08-20T16:27:33.759Z,31.50
2022-08-20T16:30:03.958Z,26.27
2022-08-20T16:32:37.428Z,28.30
2022-08-20T16:35:11.542Z,27.20
2022-08-20T16:37:43.744Z,31.67
2022-08-20T16:40:16.730Z,31.47
2022-08-20T16:42:46.658Z,29.53
2022-08-20T16:45:19.648Z,29.30
2022-08-20T16:47:48.865Z,32.80
2022-08-20T16:50:19.890Z,29.33
2022-08-20T16:52:47.828Z,29.90
2022-08-20T16:55:15.819Z,33.27
2022-08-20T16:57:44.531Z,29.03
2022-08-20T17:00:14.152Z,36.93
2022-08-20T17:02:52.350Z,30.60
2022-08-20T17:05:21.517Z,30.00
2022-08-20T17:07:51.271Z,29.40
2022-08-20T17:10:22.276Z,26.40
2022-08-20T17:12:53.403Z,27.23
2022-08-20T17:15:23.149Z,30.40
2022-08-20T17:17:50.914Z,27.37
2022-08-20T17:20:20.464Z,32.40
2022-08-20T17:22:51.599Z,30.13
2022-08-20T17:25:20.863Z,25.80
2022-08-20T17:27:49.024Z,32.23
2022-08-20T17:30:21.634Z,30.83
2022-08-20T17:32:57.338Z,29.50
2022-08-20T17:35:31.311Z,35.30
2022-08-20T17:38:02.009Z,27.00
2022-08-20T17:40:34.903Z,30.63
2022-08-20T17:43:04.029Z,27.07
2022-08-20T17:45:35.314Z,39.33
2022-08-20T17:48:04.339Z,35.50
2022-08-20T17:50:34.163Z,30.30
2022-08-20T17:53:05.910Z,31.67
2022-08-20T17:55:34.456Z,31.73
2022-08-20T17:58:03.771Z,30.30
2022-08-20T18:00:31.709Z,27.37
2022-08-20T18:03:00.226Z,28.70
2022-08-20T18:05:30.550Z,31.20
2022-08-20T18:08:03.093Z,31.37
2022-08-20T18:10:35.580Z,31.20
2022-08-20T18:13:07.297Z,29.43
2022-08-20T18:15:36.790Z,26.67
2022-08-20T18:18:14.288Z,23.23
2022-08-20T18:20:53.124Z,21.27
2022-08-20T18:23:24.541Z,21.43
2022-08-20T18:25:58.094Z,19.57
2022-08-20T18:28:29.758Z,16.20
2022-08-20T18:31:03.563Z,17.10
2022-08-20T18:33:32.910Z,22.10
2022-08-20T18:36:10.231Z,18.77
2022-08-20T18:38:42.012Z,35.57
2022-08-20T18:41:12.856Z,19.40
2022-08-20T18:43:41.379Z,23.13
2022-08-20T18:46:10.318Z,19.07
2022-08-20T18:48:38.159Z,17.53
2022-08-20T18:51:09.770Z,21.20
2022-08-20T18:53:37.459Z,18.43
2022-08-20T18:56:07.791Z,18.27
2022-08-20T18:58:39.037Z,22.33
2022-08-20T19:01:10.123Z,24.20
2022-08-20T19:03:39.421Z,22.17
2022-08-20T19:06:10.671Z,23.57
2022-08-20T19:08:47.384Z,23.60
2022-08-20T19:11:34.919Z,20.27
2022-08-20T19:14:18.033Z,22.70
2022-08-20T19:16:48.233Z,21.60
2022-08-20T19:19:16.702Z,19.20
2022-08-20T19:21:44.915Z,16.87
2022-08-20T19:24:12.972Z,17.80
2022-08-20T19:26:41.979Z,22.70
2022-08-20T19:29:11.269Z,15.47
2022-08-20T19:31:40.269Z,12.90
2022-08-20T19:34:21.610Z,17.90
2022-08-20T19:36:54.908Z,15.37
2022-08-20T19:39:23.907Z,22.60
2022-08-20T19:41:55.714Z,13.27
2022-08-20T19:44:29.282Z,14.50
2022-08-20T19:46:58.951Z,18.53
2022-08-20T19:49:30.104Z,15.10
2022-08-20T19:52:05.926Z,16.90
2022-08-20T19:54:44.321Z,14.43
2022-08-20T19:57:12.507Z,13.07
2022-08-20T19:59:40.130Z,14.10
2022-08-20T20:02:20.388Z,17.27
2022-08-20T20:04:55.553Z,15.00
2022-08-20T20:07:26.814Z,15.03
2022-08-20T20:09:56.198Z,17.83
2022-08-20T20:12:25.181Z,26.07
2022-08-20T20:14:54.387Z,18.63
2022-08-20T20:17:24.406Z,18.97
2022-08-20T20:19:56.777Z,14.13
2022-08-20T20:22:26.059Z,18.40
2022-08-20T20:25:02.631Z,14.63
2022-08-20T20:27:32.022Z,17.93
2022-08-20T20:30:00.439Z,14.40
2022-08-20T20:32:30.368Z,14.10
2022-08-20T20:34:59.390Z,18.40
2022-08-20T20:37:49.903Z,20.73
2022-08-20T20:40:25.395Z,19.40
2022-08-20T20:43:01.261Z,17.37
2022-08-20T20:45:31.459Z,19.63
2022-08-20T20:48:00.819Z,20.13
2022-08-20T20:50:30.711Z,24.10
2022-08-20T20:52:59.091Z,26.80
2022-08-20T20:55:27.720Z,24.23
2022-08-20T20:57:56.118Z,28.93
2022-08-20T21:00:24.935Z,25.57
2022-08-20T21:02:52.807Z,25.53
2022-08-20T21:05:24.931Z,23.53
2022-08-20T21:07:53.979Z,26.50
2022-08-20T21:10:22.991Z,22.43
2022-08-20T21:12:53.172Z,25.33
2022-08-20T21:15:22.035Z,22.30
2022-08-20T21:17:50.221Z,24.83
2022-08-20T21:20:17.875Z,21.07
2022-08-20T21:22:46.749Z,23.60
2022-08-20T21:25:14.795Z,22.80
2022-08-20T21:27:44.898Z,22.70
2022-08-20T21:30:13.494Z,24.20
2022-08-20T21:32:41.532Z,17.00
2022-08-20T21:35:10.110Z,36.80
2022-08-20T21:37:37.838Z,18.30
2022-08-20T21:40:08.585Z,17.53
2022-08-20T21:42:37.060Z,25.17
2022-08-20T21:45:05.703Z,19.37
2022-08-20T21:47:33.328Z,18.20
2022-08-20T21:50:01.621Z,16.67
2022-08-20T21:52:29.432Z,15.80
2022-08-20T21:54:57.205Z,16.60
2022-08-20T21:57:27.877Z,16.63
2022-08-20T21:59:56.063Z,16.07
2022-08-20T22:02:25.313Z,13.67
2022-08-20T22:04:53.894Z,18.43
2022-08-20T22:07:22.145Z,16.73
2022-08-20T22:09:49.828Z,14.60
2022-08-20T22:12:20.553Z,13.83
2022-08-20T22:14:50.567Z,13.23
2022-08-20T22:17:18.111Z,13.13
2022-08-20T22:19:45.736Z,11.07
2022-08-20T22:22:14.774Z,12.83
2022-08-20T22:24:42.620Z,11.57
2022-08-20T22:27:10.465Z,15.07
2022-08-20T22:29:38.368Z,11.43
2022-08-20T22:32:07.466Z,11.80
2022-08-20T22:34:36.091Z,13.93
2022-08-20T22:37:04.942Z,13.97
2022-08-20T22:39:32.565Z,15.17
2022-08-20T22:42:00.194Z,14.63
2022-08-20T22:44:28.018Z,13.93
2022-08-20T22:46:56.633Z,12.43
2022-08-20T22:49:28.420Z,12.90
2022-08-20T22:51:56.669Z,18.43
2022-08-20T22:54:25.454Z,12.10
2022-08-20T22:56:53.438Z,9.57
2022-08-20T22:59:21.550Z,11.73
2022-08-20T23:01:50.860Z,11.93
2022-08-20T23:04:20.787Z,17.80
2022-08-20T23:06:49.824Z,14.80
2022-08-20T23:09:20.845Z,12.27
2022-08-20T23:11:49.583Z,14.30
2022-08-20T23:14:17.246Z,13.50
2022-08-20T23:16:47.065Z,12.20
2022-08-20T23:19:17.996Z,11.70
2022-08-20T23:21:46.046Z,16.40
2022-08-20T23:24:14.991Z,19.80
2022-08-20T23:26:52.419Z,12.23
2022-08-20T23:29:22.417Z,15.40
2022-08-20T23:31:54.436Z,13.40
2022-08-20T23:34:22.171Z,16.40
2022-08-20T23:36:50.284Z,13.93
2022-08-20T23:39:19.653Z,19.83
2022-08-20T23:41:47.904Z,12.80
2022-08-20T23:44:25.083Z,15.10
2022-08-20T23:46:55.432Z,13.23
2022-08-20T23:49:23.017Z,12.20
2022-08-20T23:51:50.806Z,12.70
2022-08-20T23:54:20.102Z,16.63
2022-08-20T23:56:48.041Z,18.70
2022-08-20T23:59:15.832Z,12.27
